sensor_id;sensor_type;location;lat;lon;timestamp;pressure;altitude;pressure_sealevel;temperature;humidity
44131;BME280;29792;48.726;9.248;2022-12-24T01:37:11;96501.47;;;9.75;100.00
44131;BME280;29792;48.726;9.248;2022-12-24T01:39:37;96502.91;;;9.68;100.00
44131;BME280;29792;48.726;9.248;2022-12-24T01:42:15;96499.03;;;9.64;100.00
44131;BME280;29792;48.726;9.248;2022-12-24T01:45:32;96492.41;;;9.62;100.00
44131;BME280;29792;48.726;9.248;2022-12-24T01:47:59;96497.66;;;9.60;100.00
44131;BME280;29792;48.726;9.248;2022-12-24T01:50:24;96509.09;;;9.56;100.00
44131;BME280;29792;48.726;9.248;2022-12-24T01:52:49;96524.53;;;9.54;100.00
44131;BME280;29792;48.726;9.248;2022-12-24T01:55:18;96541.63;;;9.54;100.00
44131;BME280;29792;48.726;9.248;2022-12-24T01:57:55;96547.56;;;9.54;100.00
44131;BME280;29792;48.726;9.248;2022-12-24T02:00:22;96569.47;;;9.57;100.00
44131;BME280;29792;48.726;9.248;2022-12-24T02:02:49;96582.28;;;9.57;100.00
44131;BME280;29792;48.726;9.248;2022-12-24T02:05:25;96578.25;;;9.54;100.00
44131;BME280;29792;48.726;9.248;2022-12-24T02:07:52;96582.66;;;9.52;100.00
44131;BME280;29792;48.726;9.248;2022-12-24T02:10:18;96580.22;;;9.51;100.00
44131;BME280;29792;48.726;9.248;2022-12-24T02:12:44;96598.13;;;9.51;100.00
44131;BME280;29792;48.726;9.248;2022-12-24T02:15:12;96582.25;;;9.47;100.00
44131;BME280;29792;48.726;9.248;2022-12-24T02:23:39;96580.97;;;9.42;100.00
44131;BME280;29792;48.726;9.248;2022-12-24T02:26:33;96570.22;;;9.38;100.00
44131;BME280;29792;48.726;9.248;2022-12-24T02:29:31;96580.69;;;9.35;100.00
44131;BME280;29792;48.726;9.248;2022-12-24T02:32:12;96589.41;;;9.33;100.00
44131;BME280;29792;48.726;9.248;2022-12-24T02:34:58;96601.50;;;9.31;100.00
44131;BME280;29792;48.726;9.248;2022-12-24T02:37:32;96590.59;;;9.29;100.00
44131;BME280;29792;48.726;9.248;2022-12-24T02:40:15;96580.38;;;9.29;100.00
44131;BME280;29792;48.726;9.248;2022-12-24T02:42:47;96578.88;;;9.26;100.00
44131;BME280;29792;48.726;9.248;2022-12-24T02:45:17;96586.53;;;9.26;100.00
44131;BME280;29792;48.726;9.248;2022-12-24T02:47:44;96604.53;;;9.25;100.00
44131;BME280;29792;48.726;9.248;2022-12-24T02:50:12;96615.03;;;9.22;100.00
44131;BME280;29792;48.726;9.248;2022-12-24T02:52:40;96614.34;;;9.19;100.00
44131;BME280;29792;48.726;9.248;2022-12-24T02:58:06;96616.47;;;9.14;100.00
44131;BME280;29792;48.726;9.248;2022-12-24T03:03:37;96618.94;;;9.05;100.00
44131;BME280;29792;48.726;9.248;2022-12-24T03:09:17;96618.25;;;9.03;100.00
44131;BME280;29792;48.726;9.248;2022-12-24T03:11:52;96612.72;;;8.98;100.00
44131;BME280;29792;48.726;9.248;2022-12-24T03:14:20;96622.13;;;8.97;100.00
44131;BME280;29792;48.726;9.248;2022-12-24T03:16:47;96638.38;;;8.96;100.00
44131;BME280;29792;48.726;9.248;2022-12-24T03:19:13;96632.34;;;8.97;100.00
44131;BME280;29792;48.726;9.248;2022-12-24T03:21:39;96624.66;;;8.97;100.00
44131;BME280;29792;48.726;9.248;2022-12-24T03:24:07;96626.53;;;8.95;100.00
44131;BME280;29792;48.726;9.248;2022-12-24T03:26:33;96648.00;;;8.93;100.00
44131;BME280;29792;48.726;9.248;2022-12-24T03:28:59;96661.75;;;8.92;100.00
44131;BME280;29792;48.726;9.248;2022-12-24T03:31:24;96660.78;;;8.93;100.00
44131;BME280;29792;48.726;9.248;2022-12-24T03:33:50;96656.50;;;8.93;100.00
44131;BME280;29792;48.726;9.248;2022-12-24T03:36:16;96647.19;;;8.92;100.00
44131;BME280;29792;48.726;9.248;2022-12-24T03:38:41;96642.09;;;8.92;100.00
44131;BME280;29792;48.726;9.248;2022-12-24T03:41:07;96646.28;;;8.93;100.00
44131;BME280;29792;48.726;9.248;2022-12-24T03:43:32;96643.59;;;8.95;100.00
44131;BME280;29792;48.726;9.248;2022-12-24T03:45:57;96658.81;;;8.96;100.00
44131;BME280;29792;48.726;9.248;2022-12-24T03:48:27;96668.09;;;8.97;100.00
44131;BME280;29792;48.726;9.248;2022-12-24T03:50:52;96671.47;;;8.98;100.00
44131;BME280;29792;48.726;9.248;2022-12-24T03:53:17;96667.28;;;8.97;100.00
44131;BME280;29792;48.726;9.248;2022-12-24T03:55:42;96657.19;;;8.95;100.00
44131;BME280;29792;48.726;9.248;2022-12-24T03:58:08;96648.72;;;8.95;100.00
44131;BME280;29792;48.726;9.248;2022-12-24T04:00:33;96657.19;;;8.95;100.00
44131;BME280;29792;48.726;9.248;2022-12-24T04:02:58;96650.22;;;8.97;100.00
44131;BME280;29792;48.726;9.248;2022-12-24T04:05:23;96651.03;;;8.98;100.00
44131;BME280;29792;48.726;9.248;2022-12-24T04:07:49;96656.13;;;8.98;100.00
44131;BME280;29792;48.726;9.248;2022-12-24T04:10:15;96653.59;;;8.98;100.00
44131;BME280;29792;48.726;9.248;2022-12-24T04:12:40;96655.22;;;8.99;100.00
44131;BME280;29792;48.726;9.248;2022-12-24T04:15:08;96662.88;;;8.99;100.00
44131;BME280;29792;48.726;9.248;2022-12-24T04:17:34;96672.28;;;8.98;100.00
44131;BME280;29792;48.726;9.248;2022-12-24T04:19:59;96665.44;;;8.99;100.00
44131;BME280;29792;48.726;9.248;2022-12-24T04:22:24;96655.22;;;8.99;100.00
44131;BME280;29792;48.726;9.248;2022-12-24T04:24:50;96661.25;;;8.98;100.00
44131;BME280;29792;48.726;9.248;2022-12-24T04:27:16;96681.81;;;8.96;100.00
44131;BME280;29792;48.726;9.248;2022-12-24T04:29:41;96678.66;;;8.93;100.00
44131;BME280;29792;48.726;9.248;2022-12-24T04:32:06;96672.75;;;8.92;100.00
44131;BME280;29792;48.726;9.248;2022-12-24T04:34:32;96652.31;;;8.92;100.00
44131;BME280;29792;48.726;9.248;2022-12-24T04:36:57;96645.59;;;8.91;100.00
44131;BME280;29792;48.726;9.248;2022-12-24T04:39:22;96658.59;;;8.88;100.00
44131;BME280;29792;48.726;9.248;2022-12-24T04:41:48;96663.81;;;8.87;100.00
44131;BME280;29792;48.726;9.248;2022-12-24T04:44:13;96657.91;;;8.86;100.00
44131;BME280;29792;48.726;9.248;2022-12-24T04:46:38;96659.75;;;8.84;100.00
44131;BME280;29792;48.726;9.248;2022-12-24T04:49:05;96673.59;;;8.82;100.00
44131;BME280;29792;48.726;9.248;2022-12-24T04:51:30;96678.81;;;8.80;100.00
44131;BME280;29792;48.726;9.248;2022-12-24T04:53:56;96674.75;;;8.77;100.00
44131;BME280;29792;48.726;9.248;2022-12-24T04:56:24;96676.66;;;8.75;100.00
44131;BME280;29792;48.726;9.248;2022-12-24T04:58:49;96677.81;;;8.71;100.00
44131;BME280;29792;48.726;9.248;2022-12-24T05:01:21;96686.38;;;8.70;100.00
44131;BME280;29792;48.726;9.248;2022-12-24T05:03:47;96691.38;;;8.72;100.00
44131;BME280;29792;48.726;9.248;2022-12-24T05:06:16;96684.53;;;8.72;100.00
44131;BME280;29792;48.726;9.248;2022-12-24T05:08:42;96684.53;;;8.72;100.00
44131;BME280;29792;48.726;9.248;2022-12-24T05:11:08;96687.91;;;8.73;100.00
44131;BME280;29792;48.726;9.248;2022-12-24T05:13:34;96692.91;;;8.74;100.00
44131;BME280;29792;48.726;9.248;2022-12-24T05:15:59;96689.53;;;8.74;100.00
44131;BME280;29792;48.726;9.248;2022-12-24T05:18:25;96686.16;;;8.73;100.00
44131;BME280;29792;48.726;9.248;2022-12-24T05:20:50;96700.66;;;8.73;100.00
44131;BME280;29792;48.726;9.248;2022-12-24T05:23:21;96712.50;;;8.74;100.00
44131;BME280;29792;48.726;9.248;2022-12-24T05:26:15;96703.09;;;8.74;100.00
44131;BME280;29792;48.726;9.248;2022-12-24T05:28:51;96706.59;;;8.73;100.00
44131;BME280;29792;48.726;9.248;2022-12-24T05:31:17;96708.44;;;8.71;100.00
44131;BME280;29792;48.726;9.248;2022-12-24T05:33:43;96709.38;;;8.70;100.00
44131;BME280;29792;48.726;9.248;2022-12-24T05:36:09;96703.44;;;8.70;100.00
44131;BME280;29792;48.726;9.248;2022-12-24T05:38:34;96703.44;;;8.70;100.00
44131;BME280;29792;48.726;9.248;2022-12-24T05:41:00;96693.22;;;8.70;100.00
44131;BME280;29792;48.726;9.248;2022-12-24T05:43:25;96706.81;;;8.70;100.00
44131;BME280;29792;48.726;9.248;2022-12-24T05:45:50;96721.31;;;8.70;100.00
44131;BME280;29792;48.726;9.248;2022-12-24T05:48:16;96699.41;;;8.67;100.00
44131;BME280;29792;48.726;9.248;2022-12-24T05:50:41;96701.25;;;8.65;100.00
44131;BME280;29792;48.726;9.248;2022-12-24T05:53:06;96702.31;;;8.63;100.00
44131;BME280;29792;48.726;9.248;2022-12-24T05:55:32;96716.91;;;8.61;100.00
44131;BME280;29792;48.726;9.248;2022-12-24T05:57:58;96707.78;;;8.58;100.00
44131;BME280;29792;48.726;9.248;2022-12-24T06:00:24;96721.47;;;8.57;100.00
44131;BME280;29792;48.726;9.248;2022-12-24T06:02:49;96719.84;;;8.56;100.00
44131;BME280;29792;48.726;9.248;2022-12-24T06:05:14;96709.41;;;8.59;100.00
44131;BME280;29792;48.726;9.248;2022-12-24T06:07:40;96713.69;;;8.59;100.00
44131;BME280;29792;48.726;9.248;2022-12-24T06:10:06;96709.63;;;8.56;100.00
44131;BME280;29792;48.726;9.248;2022-12-24T06:12:31;96708.94;;;8.54;100.00
44131;BME280;29792;48.726;9.248;2022-12-24T06:14:56;96725.97;;;8.54;100.00
44131;BME280;29792;48.726;9.248;2022-12-24T06:17:22;96722.63;;;8.53;100.00
44131;BME280;29792;48.726;9.248;2022-12-24T06:19:47;96721.81;;;8.53;100.00
44131;BME280;29792;48.726;9.248;2022-12-24T06:22:12;96723.69;;;8.51;100.00
44131;BME280;29792;48.726;9.248;2022-12-24T06:24:37;96718.69;;;8.49;100.00
44131;BME280;29792;48.726;9.248;2022-12-24T06:27:03;96730.38;;;8.52;100.00
44131;BME280;29792;48.726;9.248;2022-12-24T06:29:28;96730.38;;;8.52;100.00
44131;BME280;29792;48.726;9.248;2022-12-24T06:31:53;96730.28;;;8.53;100.00
44131;BME280;29792;48.726;9.248;2022-12-24T06:34:18;96731.34;;;8.51;100.00
44131;BME280;29792;48.726;9.248;2022-12-24T06:36:43;96734.81;;;8.50;100.00
44131;BME280;29792;48.726;9.248;2022-12-24T06:39:09;96740.03;;;8.48;100.00
44131;BME280;29792;48.726;9.248;2022-12-24T06:41:34;96747.09;;;8.45;100.00
44131;BME280;29792;48.726;9.248;2022-12-24T06:43:59;96747.25;;;8.43;100.00
44131;BME280;29792;48.726;9.248;2022-12-24T06:46:25;96752.34;;;8.43;100.00
44131;BME280;29792;48.726;9.248;2022-12-24T06:48:50;96760.00;;;8.43;100.00
44131;BME280;29792;48.726;9.248;2022-12-24T06:51:16;96773.69;;;8.42;100.00
44131;BME280;29792;48.726;9.248;2022-12-24T06:53:44;96769.41;;;8.43;100.00
44131;BME280;29792;48.726;9.248;2022-12-24T06:56:11;96773.78;;;8.40;100.00
44131;BME280;29792;48.726;9.248;2022-12-24T06:58:37;96782.38;;;8.39;100.00
44131;BME280;29792;48.726;9.248;2022-12-24T07:01:04;96785.53;;;8.43;100.00
44131;BME280;29792;48.726;9.248;2022-12-24T07:03:30;96784.56;;;8.44;100.00
44131;BME280;29792;48.726;9.248;2022-12-24T07:05:55;96777.50;;;8.48;100.00
44131;BME280;29792;48.726;9.248;2022-12-24T07:08:21;96786.69;;;8.50;100.00
44131;BME280;29792;48.726;9.248;2022-12-24T07:10:50;96782.13;;;8.54;100.00
44131;BME280;29792;48.726;9.248;2022-12-24T07:13:16;96786.09;;;8.58;100.00
44131;BME280;29792;48.726;9.248;2022-12-24T07:15:41;96791.88;;;8.60;100.00
44131;BME280;29792;48.726;9.248;2022-12-24T07:18:07;96799.53;;;8.60;100.00
44131;BME280;29792;48.726;9.248;2022-12-24T07:20:32;96810.34;;;8.63;100.00
44131;BME280;29792;48.726;9.248;2022-12-24T07:22:57;96805.13;;;8.65;100.00
44131;BME280;29792;48.726;9.248;2022-12-24T07:25:22;96803.28;;;8.67;100.00
44131;BME280;29792;48.726;9.248;2022-12-24T07:27:48;96808.38;;;8.67;100.00
44131;BME280;29792;48.726;9.248;2022-12-24T07:30:13;96814.31;;;8.67;100.00
44131;BME280;29792;48.726;9.248;2022-12-24T07:32:38;96823.00;;;8.65;100.00
44131;BME280;29792;48.726;9.248;2022-12-24T07:35:04;96826.38;;;8.65;100.00
44131;BME280;29792;48.726;9.248;2022-12-24T07:37:29;96837.50;;;8.64;100.00
44131;BME280;29792;48.726;9.248;2022-12-24T07:39:54;96840.88;;;8.65;100.00
44131;BME280;29792;48.726;9.248;2022-12-24T07:42:20;96833.22;;;8.65;100.00
44131;BME280;29792;48.726;9.248;2022-12-24T07:44:45;96831.47;;;8.65;100.00
44131;BME280;29792;48.726;9.248;2022-12-24T07:47:11;96828.94;;;8.65;100.00
44131;BME280;29792;48.726;9.248;2022-12-24T07:49:36;96831.47;;;8.65;100.00
44131;BME280;29792;48.726;9.248;2022-12-24T07:52:02;96838.22;;;8.66;100.00
44131;BME280;29792;48.726;9.248;2022-12-24T07:54:28;96831.38;;;8.67;100.00
44131;BME280;29792;48.726;9.248;2022-12-24T07:56:53;96824.38;;;8.69;100.00
44131;BME280;29792;48.726;9.248;2022-12-24T07:59:19;96830.41;;;8.68;100.00
44131;BME280;29792;48.726;9.248;2022-12-24T08:01:44;96832.97;;;8.68;100.00
44131;BME280;29792;48.726;9.248;2022-12-24T08:04:09;96840.50;;;8.69;100.00
44131;BME280;29792;48.726;9.248;2022-12-24T08:06:35;96843.06;;;8.69;100.00
44131;BME280;29792;48.726;9.248;2022-12-24T08:09:00;96843.06;;;8.69;100.00
44131;BME280;29792;48.726;9.248;2022-12-24T08:11:25;96849.00;;;8.70;100.00
44131;BME280;29792;48.726;9.248;2022-12-24T08:13:50;96846.34;;;8.71;100.00
44131;BME280;29792;48.726;9.248;2022-12-24T08:16:16;96837.84;;;8.71;100.00
44131;BME280;29792;48.726;9.248;2022-12-24T08:18:41;96849.69;;;8.72;100.00
44131;BME280;29792;48.726;9.248;2022-12-24T08:21:07;96845.50;;;8.71;100.00
44131;BME280;29792;48.726;9.248;2022-12-24T08:23:33;96845.41;;;8.72;100.00
44131;BME280;29792;48.726;9.248;2022-12-24T08:25:58;96854.69;;;8.73;100.00
44131;BME280;29792;48.726;9.248;2022-12-24T08:28:23;96843.66;;;8.73;100.00
44131;BME280;29792;48.726;9.248;2022-12-24T08:30:49;96852.03;;;8.75;100.00
44131;BME280;29792;48.726;9.248;2022-12-24T08:33:15;96852.59;;;8.78;100.00
44131;BME280;29792;48.726;9.248;2022-12-24T08:35:49;96868.50;;;8.82;100.00
44131;BME280;29792;48.726;9.248;2022-12-24T08:38:14;96867.44;;;8.85;100.00
44131;BME280;29792;48.726;9.248;2022-12-24T08:40:40;96864.56;;;8.89;100.00
44131;BME280;29792;48.726;9.248;2022-12-24T08:43:06;96880.34;;;8.94;100.00
44131;BME280;29792;48.726;9.248;2022-12-24T08:45:31;96877.69;;;8.96;100.00
44131;BME280;29792;48.726;9.248;2022-12-24T08:47:58;96883.38;;;8.99;100.00
44131;BME280;29792;48.726;9.248;2022-12-24T08:50:24;96882.44;;;9.00;100.00
44131;BME280;29792;48.726;9.248;2022-12-24T08:52:49;96880.69;;;9.01;100.00
44131;BME280;29792;48.726;9.248;2022-12-24T08:55:14;96882.31;;;9.02;100.00
44131;BME280;29792;48.726;9.248;2022-12-24T08:57:40;96889.97;;;9.02;100.00
44131;BME280;29792;48.726;9.248;2022-12-24T09:00:06;96899.16;;;9.04;100.00
44131;BME280;29792;48.726;9.248;2022-12-24T09:02:32;96895.56;;;9.07;100.00
44131;BME280;29792;48.726;9.248;2022-12-24T09:04:57;96890.47;;;9.07;100.00
44131;BME280;29792;48.726;9.248;2022-12-24T09:07:22;96898.00;;;9.08;100.00
44131;BME280;29792;48.726;9.248;2022-12-24T09:09:48;96890.22;;;9.10;100.00
44131;BME280;29792;48.726;9.248;2022-12-24T09:12:13;96908.00;;;9.11;100.00
44131;BME280;29792;48.726;9.248;2022-12-24T09:14:38;96912.78;;;9.16;100.00
44131;BME280;29792;48.726;9.248;2022-12-24T09:17:04;96907.41;;;9.19;100.00
44131;BME280;29792;48.726;9.248;2022-12-24T09:19:29;96906.00;;;9.26;100.00
44131;BME280;29792;48.726;9.248;2022-12-24T09:21:54;96919.25;;;9.31;100.00
44131;BME280;29792;48.726;9.248;2022-12-24T09:24:19;96927.16;;;9.39;100.00
44131;BME280;29792;48.726;9.248;2022-12-24T09:26:45;96920.88;;;9.43;100.00
44131;BME280;29792;48.726;9.248;2022-12-24T09:29:14;96924.69;;;9.49;100.00
44131;BME280;29792;48.726;9.248;2022-12-24T09:31:39;96934.56;;;9.53;100.00
44131;BME280;29792;48.726;9.248;2022-12-24T09:34:04;96931.66;;;9.58;100.00
44131;BME280;29792;48.726;9.248;2022-12-24T09:36:29;96935.59;;;9.62;100.00
44131;BME280;29792;48.726;9.248;2022-12-24T09:38:55;96932.94;;;9.64;100.00
44131;BME280;29792;48.726;9.248;2022-12-24T09:44:31;96932.00;;;9.65;100.00
44131;BME280;29792;48.726;9.248;2022-12-24T09:47:00;96931.19;;;9.64;100.00
44131;BME280;29792;48.726;9.248;2022-12-24T09:49:37;96936.31;;;9.64;100.00
44131;BME280;29792;48.726;9.248;2022-12-24T09:52:07;96931.19;;;9.64;100.00
44131;BME280;29792;48.726;9.248;2022-12-24T09:54:37;96938.97;;;9.63;100.00
44131;BME280;29792;48.726;9.248;2022-12-24T09:57:11;96941.66;;;9.61;100.00
44131;BME280;29792;48.726;9.248;2022-12-24T09:59:45;96935.25;;;9.67;100.00
44131;BME280;29792;48.726;9.248;2022-12-24T10:02:17;96935.78;;;9.81;100.00
44131;BME280;29792;48.726;9.248;2022-12-24T10:04:43;96940.88;;;9.92;100.00
44131;BME280;29792;48.726;9.248;2022-12-24T10:07:33;96941.78;;;10.03;100.00
44131;BME280;29792;48.726;9.248;2022-12-24T10:10:23;96932.09;;;10.28;100.00
44131;BME280;29792;48.726;9.248;2022-12-24T10:13:07;96929.72;;;10.57;100.00
44131;BME280;29792;48.726;9.248;2022-12-24T10:15:39;96927.53;;;10.74;100.00
44131;BME280;29792;48.726;9.248;2022-12-24T10:21:05;96915.97;;;10.79;100.00
44131;BME280;29792;48.726;9.248;2022-12-24T10:23:39;96923.41;;;10.82;100.00
44131;BME280;29792;48.726;9.248;2022-12-24T10:26:25;96939.53;;;10.94;100.00
44131;BME280;29792;48.726;9.248;2022-12-24T10:29:05;96934.47;;;11.13;100.00
44131;BME280;29792;48.726;9.248;2022-12-24T10:31:35;96929.00;;;11.27;100.00
44131;BME280;29792;48.726;9.248;2022-12-24T10:34:17;96941.81;;;11.27;100.00
44131;BME280;29792;48.726;9.248;2022-12-24T10:36:43;96950.16;;;11.20;99.67
44131;BME280;29792;48.726;9.248;2022-12-24T10:39:21;96948.22;;;11.12;100.00
44131;BME280;29792;48.726;9.248;2022-12-24T10:41:49;96945.13;;;11.08;100.00
44131;BME280;29792;48.726;9.248;2022-12-24T10:44:18;96948.75;;;11.06;100.00
44131;BME280;29792;48.726;9.248;2022-12-24T10:46:45;96951.31;;;11.06;100.00
44131;BME280;29792;48.726;9.248;2022-12-24T10:49:14;96951.88;;;11.09;100.00
44131;BME280;29792;48.726;9.248;2022-12-24T10:51:46;96946.88;;;11.08;100.00
44131;BME280;29792;48.726;9.248;2022-12-24T10:54:15;96956.56;;;11.04;100.00
44131;BME280;29792;48.726;9.248;2022-12-24T10:56:42;96953.59;;;10.99;100.00
44131;BME280;29792;48.726;9.248;2022-12-24T11:02:03;96952.34;;;10.94;100.00
44131;BME280;29792;48.726;9.248;2022-12-24T11:04:30;96950.03;;;10.91;100.00
44131;BME280;29792;48.726;9.248;2022-12-24T11:07:02;96950.03;;;10.91;100.00
44131;BME280;29792;48.726;9.248;2022-12-24T11:09:33;96947.59;;;10.89;100.00
44131;BME280;29792;48.726;9.248;2022-12-24T11:12:00;96942.09;;;10.94;100.00
44131;BME280;29792;48.726;9.248;2022-12-24T11:14:32;96947.75;;;10.97;100.00
44131;BME280;29792;48.726;9.248;2022-12-24T11:16:58;96950.91;;;11.01;100.00
44131;BME280;29792;48.726;9.248;2022-12-24T11:19:34;96943.63;;;11.06;100.00
44131;BME280;29792;48.726;9.248;2022-12-24T11:22:06;96946.06;;;11.07;100.00
44131;BME280;29792;48.726;9.248;2022-12-24T11:24:34;96951.19;;;11.07;100.00
44131;BME280;29792;48.726;9.248;2022-12-24T11:27:42;96952.13;;;11.06;100.00
44131;BME280;29792;48.726;9.248;2022-12-24T11:32:50;96947.94;;;11.05;100.00
44131;BME280;29792;48.726;9.248;2022-12-24T11:35:41;96946.31;;;11.04;100.00
44131;BME280;29792;48.726;9.248;2022-12-24T11:38:10;96942.28;;;11.02;100.00
44131;BME280;29792;48.726;9.248;2022-12-24T11:40:42;96942.94;;;11.04;100.00
44131;BME280;29792;48.726;9.248;2022-12-24T11:43:14;96945.00;;;11.10;100.00
44131;BME280;29792;48.726;9.248;2022-12-24T11:45:47;96939.25;;;11.18;100.00
44131;BME280;29792;48.726;9.248;2022-12-24T11:48:28;96930.22;;;11.23;100.00
44131;BME280;29792;48.726;9.248;2022-12-24T11:51:02;96928.75;;;11.30;100.00
44131;BME280;29792;48.726;9.248;2022-12-24T11:56:50;96942.56;;;11.39;99.81
44131;BME280;29792;48.726;9.248;2022-12-24T11:59:19;96945.53;;;11.44;99.93
44131;BME280;29792;48.726;9.248;2022-12-24T12:01:54;96937.59;;;11.47;99.49
44131;BME280;29792;48.726;9.248;2022-12-24T12:04:27;96939.63;;;11.53;99.49
44131;BME280;29792;48.726;9.248;2022-12-24T12:06:56;96936.94;;;11.55;98.10
44131;BME280;29792;48.726;9.248;2022-12-24T12:09:25;96942.88;;;11.55;98.08
44131;BME280;29792;48.726;9.248;2022-12-24T12:11:57;96941.69;;;11.59;97.11
44131;BME280;29792;48.726;9.248;2022-12-24T12:14:30;96934.94;;;11.68;97.66
44131;BME280;29792;48.726;9.248;2022-12-24T12:17:21;96932.56;;;11.85;98.02
44131;BME280;29792;48.726;9.248;2022-12-24T12:19:59;96923.41;;;12.02;97.68
44131;BME280;29792;48.726;9.248;2022-12-24T12:22:41;96916.94;;;12.17;95.96
44131;BME280;29792;48.726;9.248;2022-12-24T12:25:21;96921.25;;;12.36;98.21
44131;BME280;29792;48.726;9.248;2022-12-24T12:27:50;96925.59;;;12.55;94.99
44131;BME280;29792;48.726;9.248;2022-12-24T12:30:19;96922.84;;;12.66;93.19
44131;BME280;29792;48.726;9.248;2022-12-24T12:32:52;96921.47;;;12.81;93.91
44131;BME280;29792;48.726;9.248;2022-12-24T12:35:34;96930.22;;;12.98;92.84
44131;BME280;29792;48.726;9.248;2022-12-24T12:38:04;96932.63;;;13.09;90.79
44131;BME280;29792;48.726;9.248;2022-12-24T12:40:51;96931.97;;;13.17;89.86
44131;BME280;29792;48.726;9.248;2022-12-24T12:46:20;96945.28;;;13.40;90.04
44131;BME280;29792;48.726;9.248;2022-12-24T12:52:11;96944.16;;;13.15;86.85
44131;BME280;29792;48.726;9.248;2022-12-24T12:57:35;96949.84;;;12.89;87.59
44131;BME280;29792;48.726;9.248;2022-12-24T13:00:05;96946.78;;;12.76;88.16
44131;BME280;29792;48.726;9.248;2022-12-24T13:05:50;96945.34;;;12.54;88.94
44131;BME280;29792;48.726;9.248;2022-12-24T13:08:48;96946.16;;;12.45;89.20
44131;BME280;29792;48.726;9.248;2022-12-24T13:11:36;96955.59;;;12.35;88.99
44131;BME280;29792;48.726;9.248;2022-12-24T13:20:17;96938.56;;;12.05;89.26
44131;BME280;29792;48.726;9.248;2022-12-24T13:22:49;96944.09;;;12.01;90.08
44131;BME280;29792;48.726;9.248;2022-12-24T13:25:25;96952.06;;;11.98;90.83
44131;BME280;29792;48.726;9.248;2022-12-24T13:27:51;96947.06;;;11.96;90.62
44131;BME280;29792;48.726;9.248;2022-12-24T13:30:38;96945.69;;;11.92;91.49
44131;BME280;29792;48.726;9.248;2022-12-24T13:33:04;96946.91;;;11.88;91.54
44131;BME280;29792;48.726;9.248;2022-12-24T13:35:31;96950.66;;;11.84;92.17
44131;BME280;29792;48.726;9.248;2022-12-24T13:40:50;96947.31;;;11.83;92.77
44131;BME280;29792;48.726;9.248;2022-12-24T13:43:15;96940.69;;;11.81;91.25
44131;BME280;29792;48.726;9.248;2022-12-24T13:45:43;96949.59;;;11.77;92.35
44131;BME280;29792;48.726;9.248;2022-12-24T13:50:50;96949.97;;;11.72;92.14
44131;BME280;29792;48.726;9.248;2022-12-24T13:53:32;96949.53;;;11.67;92.16
44131;BME280;29792;48.726;9.248;2022-12-24T13:58:40;96950.16;;;11.60;92.92
44131;BME280;29792;48.726;9.248;2022-12-24T14:01:19;96944.63;;;11.55;93.00
44131;BME280;29792;48.726;9.248;2022-12-24T14:06:22;96940.03;;;11.48;91.81
44131;BME280;29792;48.726;9.248;2022-12-24T14:08:52;96944.34;;;11.48;91.87
44131;BME280;29792;48.726;9.248;2022-12-24T14:11:21;96937.47;;;11.48;92.23
44131;BME280;29792;48.726;9.248;2022-12-24T14:19:11;96926.28;;;11.50;92.04
44131;BME280;29792;48.726;9.248;2022-12-24T14:21:42;96926.16;;;11.51;92.69
44131;BME280;29792;48.726;9.248;2022-12-24T14:24:14;96920.84;;;11.53;93.29
44131;BME280;29792;48.726;9.248;2022-12-24T14:26:47;96923.56;;;11.51;93.13
44131;BME280;29792;48.726;9.248;2022-12-24T14:29:19;96916.81;;;11.50;92.69
44131;BME280;29792;48.726;9.248;2022-12-24T14:31:50;96915.44;;;11.46;92.88
44131;BME280;29792;48.726;9.248;2022-12-24T14:34:16;96917.84;;;11.38;93.57
44131;BME280;29792;48.726;9.248;2022-12-24T14:36:43;96920.81;;;11.33;93.85
44131;BME280;29792;48.726;9.248;2022-12-24T14:39:14;96943.09;;;11.33;93.88
44131;BME280;29792;48.726;9.248;2022-12-24T14:41:52;96937.50;;;11.28;95.04
44131;BME280;29792;48.726;9.248;2022-12-24T14:44:45;96935.75;;;11.19;95.39
44131;BME280;29792;48.726;9.248;2022-12-24T14:47:36;96927.06;;;11.10;96.66
44131;BME280;29792;48.726;9.248;2022-12-24T14:53:19;96926.38;;;10.87;99.14
44131;BME280;29792;48.726;9.248;2022-12-24T14:55:47;96934.28;;;10.75;99.23
44131;BME280;29792;48.726;9.248;2022-12-24T14:58:31;96950.97;;;10.69;100.00
44131;BME280;29792;48.726;9.248;2022-12-24T15:01:18;96945.28;;;10.65;100.00
44131;BME280;29792;48.726;9.248;2022-12-24T15:03:44;96948.78;;;10.64;100.00
44131;BME280;29792;48.726;9.248;2022-12-24T15:06:11;96945.09;;;10.57;100.00
44131;BME280;29792;48.726;9.248;2022-12-24T15:08:39;96953.28;;;10.51;100.00
44131;BME280;29792;48.726;9.248;2022-12-24T15:11:08;96957.81;;;10.48;100.00
44131;BME280;29792;48.726;9.248;2022-12-24T15:13:44;96952.97;;;10.45;100.00
44131;BME280;29792;48.726;9.248;2022-12-24T15:16:23;96947.25;;;10.41;100.00
44131;BME280;29792;48.726;9.248;2022-12-24T15:18:52;96951.69;;;10.39;100.00
44131;BME280;29792;48.726;9.248;2022-12-24T15:21:25;96942.53;;;10.37;100.00
44131;BME280;29792;48.726;9.248;2022-12-24T15:23:52;96944.63;;;10.31;100.00
44131;BME280;29792;48.726;9.248;2022-12-24T15:26:30;96953.38;;;10.29;100.00
44131;BME280;29792;48.726;9.248;2022-12-24T15:28:57;96965.72;;;10.24;100.00
44131;BME280;29792;48.726;9.248;2022-12-24T15:31:24;96961.91;;;10.18;100.00
44131;BME280;29792;48.726;9.248;2022-12-24T15:33:53;96968.97;;;10.15;100.00
44131;BME280;29792;48.726;9.248;2022-12-24T15:36:35;96965.84;;;10.11;100.00
44131;BME280;29792;48.726;9.248;2022-12-24T15:39:03;96978.88;;;10.08;100.00
44131;BME280;29792;48.726;9.248;2022-12-24T15:41:39;96982.25;;;10.09;100.00
44131;BME280;29792;48.726;9.248;2022-12-24T15:44:27;96985.84;;;10.06;100.00
44131;BME280;29792;48.726;9.248;2022-12-24T15:46:57;96981.81;;;10.04;100.00
44131;BME280;29792;48.726;9.248;2022-12-24T15:49:24;96981.94;;;10.02;100.00
44131;BME280;29792;48.726;9.248;2022-12-24T15:51:52;96984.59;;;10.01;100.00
44131;BME280;29792;48.726;9.248;2022-12-24T15:54:19;96987.28;;;9.99;100.00